sensor_id;sensor_type;location;lat;lon;timestamp;pressure;altitude;pressure_sealevel;temperature;humidity
62057;BME280;48016;50.284;18.860;2022-08-21T00:00:08;97753.52;;;19.30;93.00
62057;BME280;48016;50.284;18.860;2022-08-21T00:02:36;97752.38;;;19.31;93.26
62057;BME280;48016;50.284;18.860;2022-08-21T00:05:04;97748.17;;;19.33;92.94
62057;BME280;48016;50.284;18.860;2022-08-21T00:07:31;97739.30;;;19.36;93.30
62057;BME280;48016;50.284;18.860;2022-08-21T00:09:59;97733.82;;;19.36;93.42
62057;BME280;48016;50.284;18.860;2022-08-21T00:12:26;97729.94;;;19.37;93.07
62057;BME280;48016;50.284;18.860;2022-08-21T00:14:53;97733.16;;;19.39;93.25
62057;BME280;48016;50.284;18.860;2022-08-21T00:17:20;97727.69;;;19.39;93.54
62057;BME280;48016;50.284;18.860;2022-08-21T00:19:49;97729.94;;;19.37;93.56
62057;BME280;48016;50.284;18.860;2022-08-21T00:22:16;97724.95;;;19.39;93.34
62057;BME280;48016;50.284;18.860;2022-08-21T00:24:43;97718.66;;;19.39;93.15
62057;BME280;48016;50.284;18.860;2022-08-21T00:27:10;97712.04;;;19.40;93.65
62057;BME280;48016;50.284;18.860;2022-08-21T00:29:37;97712.84;;;19.40;93.78
62057;BME280;48016;50.284;18.860;2022-08-21T00:32:05;97706.56;;;19.40;93.42
62057;BME280;48016;50.284;18.860;2022-08-21T00:34:32;97702.67;;;19.41;93.63
62057;BME280;48016;50.284;18.860;2022-08-21T00:36:59;97701.42;;;19.38;93.60
62057;BME280;48016;50.284;18.860;2022-08-21T00:39:26;97701.88;;;19.40;93.82
62057;BME280;48016;50.284;18.860;2022-08-21T00:41:53;97707.84;;;19.42;93.77
62057;BME280;48016;50.284;18.860;2022-08-21T00:44:20;97702.84;;;19.45;93.96
62057;BME280;48016;50.284;18.860;2022-08-21T00:46:47;97699.62;;;19.42;94.12
62057;BME280;48016;50.284;18.860;2022-08-21T00:49:15;97697.36;;;19.45;93.77
62057;BME280;48016;50.284;18.860;2022-08-21T00:51:55;97681.72;;;19.45;93.76
62057;BME280;48016;50.284;18.860;2022-08-21T00:54:27;97679.46;;;19.47;94.21
62057;BME280;48016;50.284;18.860;2022-08-21T00:57:01;97667.66;;;19.47;94.03
62057;BME280;48016;50.284;18.860;2022-08-21T00:59:32;97674.44;;;19.49;93.92
62057;BME280;48016;50.284;18.860;2022-08-21T01:02:03;97663.95;;;19.51;94.02
62057;BME280;48016;50.284;18.860;2022-08-21T01:04:31;97669.58;;;19.55;93.39
62057;BME280;48016;50.284;18.860;2022-08-21T01:06:58;97662.15;;;19.55;93.68
62057;BME280;48016;50.284;18.860;2022-08-21T01:09:26;97654.75;;;19.56;93.83
62057;BME280;48016;50.284;18.860;2022-08-21T01:11:54;97650.87;;;19.57;93.75
62057;BME280;48016;50.284;18.860;2022-08-21T01:14:21;97649.27;;;19.56;93.84
62057;BME280;48016;50.284;18.860;2022-08-21T01:16:51;97647.64;;;19.55;93.49
62057;BME280;48016;50.284;18.860;2022-08-21T01:19:20;97641.36;;;19.54;93.65
62057;BME280;48016;50.284;18.860;2022-08-21T01:21:48;97647.64;;;19.55;93.61
62057;BME280;48016;50.284;18.860;2022-08-21T01:24:15;97646.53;;;19.56;93.59
62057;BME280;48016;50.284;18.860;2022-08-21T01:26:43;97641.05;;;19.56;93.57
62057;BME280;48016;50.284;18.860;2022-08-21T01:29:50;97643.78;;;19.56;93.30
62057;BME280;48016;50.284;18.860;2022-08-21T01:32:19;97636.02;;;19.58;93.49
62057;BME280;48016;50.284;18.860;2022-08-21T01:34:49;97623.45;;;19.57;93.41
62057;BME280;48016;50.284;18.860;2022-08-21T01:37:18;97625.05;;;19.58;93.36
62057;BME280;48016;50.284;18.860;2022-08-21T01:39:46;97625.53;;;19.60;93.40
62057;BME280;48016;50.284;18.860;2022-08-21T01:42:14;97615.70;;;19.59;93.65
62057;BME280;48016;50.284;18.860;2022-08-21T01:44:42;97615.70;;;19.59;93.52
62057;BME280;48016;50.284;18.860;2022-08-21T01:47:11;97607.80;;;19.57;93.58
62057;BME280;48016;50.284;18.860;2022-08-21T01:49:43;97599.92;;;19.56;93.37
62057;BME280;48016;50.284;18.860;2022-08-21T01:52:11;97596.03;;;19.57;93.27
62057;BME280;48016;50.284;18.860;2022-08-21T01:54:38;97596.83;;;19.57;93.47
62057;BME280;48016;50.284;18.860;2022-08-21T01:57:06;97590.55;;;19.57;93.47
62057;BME280;48016;50.284;18.860;2022-08-21T01:59:34;97588.47;;;19.54;93.55
62057;BME280;48016;50.284;18.860;2022-08-21T02:02:03;97590.73;;;19.52;93.49
62057;BME280;48016;50.284;18.860;2022-08-21T02:04:30;97579.28;;;19.50;93.38
62057;BME280;48016;50.284;18.860;2022-08-21T02:06:59;97572.20;;;19.49;93.22
62057;BME280;48016;50.284;18.860;2022-08-21T02:09:27;97570.61;;;19.48;93.33
62057;BME280;48016;50.284;18.860;2022-08-21T02:11:55;97565.80;;;19.45;93.33
62057;BME280;48016;50.284;18.860;2022-08-21T02:14:23;97568.05;;;19.42;93.64
62057;BME280;48016;50.284;18.860;2022-08-21T02:16:50;97565.63;;;19.41;93.77
62057;BME280;48016;50.284;18.860;2022-08-21T02:19:17;97561.64;;;19.38;93.70
62057;BME280;48016;50.284;18.860;2022-08-21T02:21:44;97559.88;;;19.34;93.61
62057;BME280;48016;50.284;18.860;2022-08-21T02:24:12;97567.16;;;19.30;93.89
62057;BME280;48016;50.284;18.860;2022-08-21T02:26:39;97569.91;;;19.30;93.98
62057;BME280;48016;50.284;18.860;2022-08-21T02:29:07;97563.59;;;19.29;93.33
62057;BME280;48016;50.284;18.860;2022-08-21T02:31:34;97569.07;;;19.29;94.03
62057;BME280;48016;50.284;18.860;2022-08-21T02:34:01;97580.03;;;19.29;93.76
62057;BME280;48016;50.284;18.860;2022-08-21T02:36:30;97574.55;;;19.29;94.29
62057;BME280;48016;50.284;18.860;2022-08-21T02:38:57;97575.70;;;19.28;93.84
62057;BME280;48016;50.284;18.860;2022-08-21T02:41:24;97566.02;;;19.31;94.11
62057;BME280;48016;50.284;18.860;2022-08-21T02:43:51;97566.81;;;19.31;94.30
62057;BME280;48016;50.284;18.860;2022-08-21T02:46:19;97573.89;;;19.32;94.53
62057;BME280;48016;50.284;18.860;2022-08-21T02:48:47;97575.52;;;19.33;94.36
62057;BME280;48016;50.284;18.860;2022-08-21T02:51:16;97582.11;;;19.32;95.26
62057;BME280;48016;50.284;18.860;2022-08-21T02:53:47;97586.48;;;19.33;94.97
62057;BME280;48016;50.284;18.860;2022-08-21T02:56:17;97589.36;;;19.37;94.63
62057;BME280;48016;50.284;18.860;2022-08-21T02:58:48;97596.13;;;19.39;94.46
62057;BME280;48016;50.284;18.860;2022-08-21T03:01:15;97589.66;;;19.44;94.66
62057;BME280;48016;50.284;18.860;2022-08-21T03:03:45;97591.73;;;19.47;94.60
62057;BME280;48016;50.284;18.860;2022-08-21T03:06:15;97591.73;;;19.47;95.00
62057;BME280;48016;50.284;18.860;2022-08-21T03:08:44;97587.06;;;19.48;94.87
62057;BME280;48016;50.284;18.860;2022-08-21T03:11:13;97584.63;;;19.46;94.87
62057;BME280;48016;50.284;18.860;2022-08-21T03:13:41;97584.63;;;19.46;94.85
62057;BME280;48016;50.284;18.860;2022-08-21T03:16:09;97588.17;;;19.47;94.60
62057;BME280;48016;50.284;18.860;2022-08-21T03:18:36;97581.09;;;19.46;94.92
62057;BME280;48016;50.284;18.860;2022-08-21T03:21:04;97589.31;;;19.46;95.08
62057;BME280;48016;50.284;18.860;2022-08-21T03:23:32;97588.66;;;19.49;94.94
62057;BME280;48016;50.284;18.860;2022-08-21T03:25:59;97591.08;;;19.50;94.83
62057;BME280;48016;50.284;18.860;2022-08-21T03:28:26;97598.16;;;19.51;94.88
62057;BME280;48016;50.284;18.860;2022-08-21T03:30:53;97598.16;;;19.51;94.88
62057;BME280;48016;50.284;18.860;2022-08-21T03:33:20;97601.22;;;19.50;94.98
62057;BME280;48016;50.284;18.860;2022-08-21T03:36:01;97606.70;;;19.50;95.14
62057;BME280;48016;50.284;18.860;2022-08-21T03:38:31;97608.33;;;19.51;94.94
62057;BME280;48016;50.284;18.860;2022-08-21T03:40:59;97609.92;;;19.52;94.68
62057;BME280;48016;50.284;18.860;2022-08-21T03:43:27;97613.81;;;19.51;95.22
62057;BME280;48016;50.284;18.860;2022-08-21T03:45:55;97612.18;;;19.50;95.17
62057;BME280;48016;50.284;18.860;2022-08-21T03:48:22;97615.41;;;19.52;95.12
62057;BME280;48016;50.284;18.860;2022-08-21T03:50:52;97618.63;;;19.54;95.13
62057;BME280;48016;50.284;18.860;2022-08-21T03:53:19;97618.95;;;19.52;95.12
62057;BME280;48016;50.284;18.860;2022-08-21T03:55:48;97617.83;;;19.53;95.37
62057;BME280;48016;50.284;18.860;2022-08-21T03:58:17;97621.85;;;19.56;95.21
62057;BME280;48016;50.284;18.860;2022-08-21T04:00:47;97628.80;;;19.53;96.01
62057;BME280;48016;50.284;18.860;2022-08-21T04:03:16;97618.81;;;19.49;95.59
62057;BME280;48016;50.284;18.860;2022-08-21T04:05:44;97619.95;;;19.48;95.68
62057;BME280;48016;50.284;18.860;2022-08-21T04:08:13;97621.55;;;19.49;95.74
62057;BME280;48016;50.284;18.860;2022-08-21T04:10:42;97613.46;;;19.52;95.51
62057;BME280;48016;50.284;18.860;2022-08-21T04:13:11;97609.27;;;19.55;95.81
62057;BME280;48016;50.284;18.860;2022-08-21T04:15:38;97611.34;;;19.58;95.46
62057;BME280;48016;50.284;18.860;2022-08-21T04:18:05;97606.34;;;19.60;95.26
62057;BME280;48016;50.284;18.860;2022-08-21T04:20:32;97614.56;;;19.60;95.58
62057;BME280;48016;50.284;18.860;2022-08-21T04:23:00;97610.89;;;19.56;96.11
62057;BME280;48016;50.284;18.860;2022-08-21T04:25:27;97609.92;;;19.52;95.96
62057;BME280;48016;50.284;18.860;2022-08-21T04:27:55;97615.75;;;19.50;95.86
62057;BME280;48016;50.284;18.860;2022-08-21T04:30:24;97610.58;;;19.49;95.95
62057;BME280;48016;50.284;18.860;2022-08-21T04:32:52;97613.02;;;19.50;95.43
62057;BME280;48016;50.284;18.860;2022-08-21T04:35:22;97615.55;;;19.55;95.60
62057;BME280;48016;50.284;18.860;2022-08-21T04:37:49;97617.30;;;19.60;95.94
62057;BME280;48016;50.284;18.860;2022-08-21T04:40:18;97616.64;;;19.63;95.71
62057;BME280;48016;50.284;18.860;2022-08-21T04:42:54;97615.69;;;19.68;95.72
62057;BME280;48016;50.284;18.860;2022-08-21T04:45:29;97614.02;;;19.75;95.50
62057;BME280;48016;50.284;18.860;2022-08-21T04:47:58;97614.31;;;19.82;95.63
62057;BME280;48016;50.284;18.860;2022-08-21T04:50:39;97610.42;;;19.83;95.46
62057;BME280;48016;50.284;18.860;2022-08-21T04:56:11;97622.62;;;19.95;95.30
62057;BME280;48016;50.284;18.860;2022-08-21T04:58:40;97622.08;;;20.01;94.81
62057;BME280;48016;50.284;18.860;2022-08-21T05:01:12;97628.53;;;20.05;94.74
62057;BME280;48016;50.284;18.860;2022-08-21T05:03:42;97628.34;;;20.11;94.87
62057;BME280;48016;50.284;18.860;2022-08-21T05:06:12;97635.08;;;20.13;94.55
62057;BME280;48016;50.284;18.860;2022-08-21T05:08:42;97642.64;;;20.16;94.70
62057;BME280;48016;50.284;18.860;2022-08-21T05:11:12;97645.55;;;20.20;94.35
62057;BME280;48016;50.284;18.860;2022-08-21T05:13:39;97658.91;;;20.21;94.40
62057;BME280;48016;50.284;18.860;2022-08-21T05:16:10;97656.65;;;20.23;94.43
62057;BME280;48016;50.284;18.860;2022-08-21T05:18:37;97667.76;;;20.27;94.69
62057;BME280;48016;50.284;18.860;2022-08-21T05:21:04;97664.69;;;20.28;94.48
62057;BME280;48016;50.284;18.860;2022-08-21T05:23:31;97662.39;;;20.30;94.57
62057;BME280;48016;50.284;18.860;2022-08-21T05:25:59;97660.13;;;20.32;93.94
62057;BME280;48016;50.284;18.860;2022-08-21T05:28:26;97663.35;;;20.35;94.16
62057;BME280;48016;50.284;18.860;2022-08-21T05:30:53;97658.66;;;20.35;94.17
62057;BME280;48016;50.284;18.860;2022-08-21T05:33:20;97664.95;;;20.36;94.39
62057;BME280;48016;50.284;18.860;2022-08-21T05:35:52;97672.38;;;20.35;93.99
62057;BME280;48016;50.284;18.860;2022-08-21T05:38:24;97668.05;;;20.34;94.08
62057;BME280;48016;50.284;18.860;2022-08-21T05:40:51;97677.55;;;20.37;93.88
62057;BME280;48016;50.284;18.860;2022-08-21T05:43:18;97679.16;;;20.38;94.60
62057;BME280;48016;50.284;18.860;2022-08-21T05:45:46;97686.23;;;20.39;94.22
62057;BME280;48016;50.284;18.860;2022-08-21T05:48:21;97687.20;;;20.43;93.79
62057;BME280;48016;50.284;18.860;2022-08-21T05:50:50;97680.88;;;20.42;93.78
62057;BME280;48016;50.284;18.860;2022-08-21T05:53:19;97687.64;;;20.45;93.48
62057;BME280;48016;50.284;18.860;2022-08-21T05:55:48;97686.37;;;20.42;93.78
62057;BME280;48016;50.284;18.860;2022-08-21T05:58:19;97686.72;;;20.41;93.73
62057;BME280;48016;50.284;18.860;2022-08-21T06:00:47;97680.30;;;20.37;93.59
62057;BME280;48016;50.284;18.860;2022-08-21T06:03:18;97680.94;;;20.33;93.75
62057;BME280;48016;50.284;18.860;2022-08-21T06:05:46;97687.92;;;20.31;93.61
62057;BME280;48016;50.284;18.860;2022-08-21T06:08:14;97696.00;;;20.27;93.43
62057;BME280;48016;50.284;18.860;2022-08-21T06:10:42;97690.92;;;20.17;93.21
62057;BME280;48016;50.284;18.860;2022-08-21T06:13:09;97688.89;;;20.05;92.83
62057;BME280;48016;50.284;18.860;2022-08-21T06:15:37;97692.34;;;19.94;92.17
62057;BME280;48016;50.284;18.860;2022-08-21T06:18:05;97680.94;;;19.83;92.17
62057;BME280;48016;50.284;18.860;2022-08-21T06:20:32;97679.70;;;19.72;92.15
62057;BME280;48016;50.284;18.860;2022-08-21T06:23:00;97680.37;;;19.60;91.79
62057;BME280;48016;50.284;18.860;2022-08-21T06:25:28;97677.80;;;19.55;92.04
62057;BME280;48016;50.284;18.860;2022-08-21T06:28:07;97693.97;;;19.48;91.81
62057;BME280;48016;50.284;18.860;2022-08-21T06:30:35;97694.00;;;19.39;91.87
62057;BME280;48016;50.284;18.860;2022-08-21T06:33:03;97695.30;;;19.33;91.97
62057;BME280;48016;50.284;18.860;2022-08-21T06:35:30;97695.78;;;19.26;91.81
62057;BME280;48016;50.284;18.860;2022-08-21T06:37:57;97699.52;;;19.22;91.96
62057;BME280;48016;50.284;18.860;2022-08-21T06:40:26;97705.97;;;19.17;91.65
62057;BME280;48016;50.284;18.860;2022-08-21T06:42:53;97702.28;;;19.13;91.83
62057;BME280;48016;50.284;18.860;2022-08-21T06:45:21;97700.50;;;19.08;90.92
62057;BME280;48016;50.284;18.860;2022-08-21T06:47:48;97701.64;;;19.07;90.92
62057;BME280;48016;50.284;18.860;2022-08-21T06:50:15;97702.45;;;19.08;90.51
62057;BME280;48016;50.284;18.860;2022-08-21T06:52:42;97698.11;;;19.07;89.32
62057;BME280;48016;50.284;18.860;2022-08-21T06:55:09;97695.83;;;19.09;89.85
62057;BME280;48016;50.284;18.860;2022-08-21T06:57:36;97701.14;;;19.14;89.73
62057;BME280;48016;50.284;18.860;2022-08-21T07:00:05;97698.23;;;19.19;89.41
62057;BME280;48016;50.284;18.860;2022-08-21T07:02:32;97711.28;;;19.22;88.91
62057;BME280;48016;50.284;18.860;2022-08-21T07:05:00;97713.86;;;19.27;88.57
62057;BME280;48016;50.284;18.860;2022-08-21T07:07:28;97708.17;;;19.32;88.27
62057;BME280;48016;50.284;18.860;2022-08-21T07:09:55;97707.55;;;19.35;87.83
62057;BME280;48016;50.284;18.860;2022-08-21T07:12:22;97710.75;;;19.37;86.68
62057;BME280;48016;50.284;18.860;2022-08-21T07:14:49;97704.61;;;19.40;87.08
62057;BME280;48016;50.284;18.860;2022-08-21T07:17:16;97707.67;;;19.48;87.41
62057;BME280;48016;50.284;18.860;2022-08-21T07:19:43;97710.07;;;19.49;85.12
62057;BME280;48016;50.284;18.860;2022-08-21T07:22:10;97701.53;;;19.51;86.39
62057;BME280;48016;50.284;18.860;2022-08-21T07:24:38;97712.16;;;19.52;86.53
62057;BME280;48016;50.284;18.860;2022-08-21T07:27:05;97707.95;;;19.55;86.08
62057;BME280;48016;50.284;18.860;2022-08-21T07:29:33;97706.98;;;19.59;85.57
62057;BME280;48016;50.284;18.860;2022-08-21T07:32:00;97700.70;;;19.68;85.50
62057;BME280;48016;50.284;18.860;2022-08-21T07:34:27;97710.97;;;19.79;85.21
62057;BME280;48016;50.284;18.860;2022-08-21T07:36:54;97711.87;;;19.92;84.72
62057;BME280;48016;50.284;18.860;2022-08-21T07:39:21;97712.78;;;20.05;84.31
62057;BME280;48016;50.284;18.860;2022-08-21T07:41:48;97719.95;;;20.18;84.36
62057;BME280;48016;50.284;18.860;2022-08-21T07:44:15;97715.03;;;20.32;84.01
62057;BME280;48016;50.284;18.860;2022-08-21T07:46:42;97716.50;;;20.51;84.93
62057;BME280;48016;50.284;18.860;2022-08-21T07:49:09;97709.31;;;20.67;83.18
62057;BME280;48016;50.284;18.860;2022-08-21T07:51:36;97715.34;;;20.82;83.69
62057;BME280;48016;50.284;18.860;2022-08-21T07:54:03;97705.55;;;20.93;82.90
62057;BME280;48016;50.284;18.860;2022-08-21T07:56:30;97706.73;;;21.04;81.81
62057;BME280;48016;50.284;18.860;2022-08-21T07:58:58;97715.02;;;21.16;82.08
62057;BME280;48016;50.284;18.860;2022-08-21T08:01:25;97714.05;;;21.33;80.83
62057;BME280;48016;50.284;18.860;2022-08-21T08:03:52;97710.34;;;21.50;81.09
62057;BME280;48016;50.284;18.860;2022-08-21T08:06:19;97711.63;;;21.65;80.35
62057;BME280;48016;50.284;18.860;2022-08-21T08:08:46;97708.55;;;21.79;80.27
62057;BME280;48016;50.284;18.860;2022-08-21T08:11:14;97712.20;;;21.95;79.98
62057;BME280;48016;50.284;18.860;2022-08-21T08:13:47;97714.72;;;22.12;79.29
62057;BME280;48016;50.284;18.860;2022-08-21T08:16:15;97710.63;;;22.31;78.85
62057;BME280;48016;50.284;18.860;2022-08-21T08:18:42;97705.55;;;22.45;78.38
62057;BME280;48016;50.284;18.860;2022-08-21T08:21:12;97701.60;;;22.59;78.01
62057;BME280;48016;50.284;18.860;2022-08-21T08:23:40;97708.00;;;22.75;77.39
62057;BME280;48016;50.284;18.860;2022-08-21T08:26:07;97704.02;;;22.88;76.63
62057;BME280;48016;50.284;18.860;2022-08-21T08:28:34;97707.67;;;23.05;75.60
62057;BME280;48016;50.284;18.860;2022-08-21T08:31:01;97713.34;;;23.24;76.14
62057;BME280;48016;50.284;18.860;2022-08-21T08:33:29;97712.64;;;23.43;75.59
62057;BME280;48016;50.284;18.860;2022-08-21T08:35:56;97717.03;;;23.60;74.31
62057;BME280;48016;50.284;18.860;2022-08-21T08:38:24;97718.05;;;23.83;74.27
62057;BME280;48016;50.284;18.860;2022-08-21T08:43:35;97715.45;;;24.06;72.99
62057;BME280;48016;50.284;18.860;2022-08-21T08:46:06;97712.95;;;24.17;72.52
62057;BME280;48016;50.284;18.860;2022-08-21T08:51:16;97712.30;;;24.24;71.90
62057;BME280;48016;50.284;18.860;2022-08-21T08:53:59;97715.44;;;24.22;71.73
62057;BME280;48016;50.284;18.860;2022-08-21T08:56:31;97716.24;;;24.23;71.40
62057;BME280;48016;50.284;18.860;2022-08-21T08:59:13;97706.06;;;24.27;71.01
62057;BME280;48016;50.284;18.860;2022-08-21T09:01:42;97714.00;;;24.28;70.20
62057;BME280;48016;50.284;18.860;2022-08-21T09:04:10;97712.41;;;24.27;69.77
62057;BME280;48016;50.284;18.860;2022-08-21T09:06:53;97704.65;;;24.33;70.41
62057;BME280;48016;50.284;18.860;2022-08-21T09:12:02;97706.31;;;24.38;70.32
62057;BME280;48016;50.284;18.860;2022-08-21T09:17:40;97715.89;;;24.24;70.27
62057;BME280;48016;50.284;18.860;2022-08-21T09:20:52;97715.27;;;24.15;70.25
62057;BME280;48016;50.284;18.860;2022-08-21T09:26:07;97714.50;;;23.99;70.42
62057;BME280;48016;50.284;18.860;2022-08-21T09:28:39;97713.43;;;23.87;70.33
62057;BME280;48016;50.284;18.860;2022-08-21T09:31:30;97721.09;;;23.78;70.23
62057;BME280;48016;50.284;18.860;2022-08-21T09:34:04;97718.82;;;23.68;70.32
62057;BME280;48016;50.284;18.860;2022-08-21T09:39:02;97709.47;;;23.57;70.92
62057;BME280;48016;50.284;18.860;2022-08-21T09:41:32;97712.14;;;23.53;71.18
62057;BME280;48016;50.284;18.860;2022-08-21T09:44:03;97717.45;;;23.46;71.40
62057;BME280;48016;50.284;18.860;2022-08-21T09:46:30;97710.97;;;23.38;71.54
62057;BME280;48016;50.284;18.860;2022-08-21T09:49:01;97705.86;;;23.24;71.63
62057;BME280;48016;50.284;18.860;2022-08-21T09:51:34;97701.45;;;23.08;71.69
62057;BME280;48016;50.284;18.860;2022-08-21T09:56:35;97701.17;;;22.85;72.36
62057;BME280;48016;50.284;18.860;2022-08-21T09:59:29;97698.56;;;22.76;72.55
62057;BME280;48016;50.284;18.860;2022-08-21T10:01:59;97701.92;;;22.69;72.75
62057;BME280;48016;50.284;18.860;2022-08-21T10:04:31;97704.91;;;22.64;73.09
62057;BME280;48016;50.284;18.860;2022-08-21T10:07:09;97717.23;;;22.54;73.44
62057;BME280;48016;50.284;18.860;2022-08-21T10:09:37;97721.61;;;22.43;73.84
62057;BME280;48016;50.284;18.860;2022-08-21T10:12:20;97717.27;;;22.30;74.10
62057;BME280;48016;50.284;18.860;2022-08-21T10:15:39;97722.78;;;22.18;74.49
62057;BME280;48016;50.284;18.860;2022-08-21T10:20:31;97736.53;;;21.93;74.43
62057;BME280;48016;50.284;18.860;2022-08-21T10:23:13;97729.87;;;21.82;74.73
62057;BME280;48016;50.284;18.860;2022-08-21T10:34:47;97727.55;;;21.72;76.19
62057;BME280;48016;50.284;18.860;2022-08-21T10:47:57;97745.64;;;21.60;76.91
62057;BME280;48016;50.284;18.860;2022-08-21T10:50:42;97735.91;;;21.63;77.01
62057;BME280;48016;50.284;18.860;2022-08-21T10:56:16;97739.70;;;21.71;76.91
62057;BME280;48016;50.284;18.860;2022-08-21T10:58:58;97736.97;;;21.83;76.58
62057;BME280;48016;50.284;18.860;2022-08-21T11:01:40;97725.16;;;21.95;76.22
62057;BME280;48016;50.284;18.860;2022-08-21T11:04:17;97733.09;;;22.08;76.02
62057;BME280;48016;50.284;18.860;2022-08-21T11:06:51;97741.03;;;22.22;76.12
62057;BME280;48016;50.284;18.860;2022-08-21T11:09:24;97739.77;;;22.20;76.25
62057;BME280;48016;50.284;18.860;2022-08-21T11:12:00;97752.13;;;22.14;76.14
62057;BME280;48016;50.284;18.860;2022-08-21T11:17:42;97747.54;;;21.93;75.96
62057;BME280;48016;50.284;18.860;2022-08-21T11:20:21;97738.56;;;21.84;75.96
62057;BME280;48016;50.284;18.860;2022-08-21T11:23:17;97745.44;;;21.78;76.18
62057;BME280;48016;50.284;18.860;2022-08-21T11:25:52;97741.56;;;21.79;76.32
62057;BME280;48016;50.284;18.860;2022-08-21T11:28:31;97738.13;;;21.82;76.54
62057;BME280;48016;50.284;18.860;2022-08-21T11:31:04;97736.05;;;21.79;77.06
62057;BME280;48016;50.284;18.860;2022-08-21T11:36:45;97734.78;;;21.64;76.79
62057;BME280;48016;50.284;18.860;2022-08-21T11:39:26;97741.03;;;21.52;77.12
62057;BME280;48016;50.284;18.860;2022-08-21T11:45:22;97739.80;;;21.29;77.43
62057;BME280;48016;50.284;18.860;2022-08-21T11:48:04;97737.80;;;21.17;77.36
62057;BME280;48016;50.284;18.860;2022-08-21T11:50:36;97746.93;;;21.09;78.21
62057;BME280;48016;50.284;18.860;2022-08-21T11:55:43;97748.59;;;20.89;79.17
62057;BME280;48016;50.284;18.860;2022-08-21T11:58:17;97743.48;;;20.79;78.80
62057;BME280;48016;50.284;18.860;2022-08-21T12:00:52;97748.50;;;20.76;79.03
62057;BME280;48016;50.284;18.860;2022-08-21T12:03:36;97744.83;;;20.72;79.07
62057;BME280;48016;50.284;18.860;2022-08-21T12:06:08;97736.66;;;20.64;79.71
62057;BME280;48016;50.284;18.860;2022-08-21T12:08:41;97749.30;;;20.56;79.33
62057;BME280;48016;50.284;18.860;2022-08-21T12:14:18;97746.92;;;20.46;79.90
62057;BME280;48016;50.284;18.860;2022-08-21T12:16:48;97748.27;;;20.40;80.01
62057;BME280;48016;50.284;18.860;2022-08-21T12:22:13;97747.83;;;20.29;80.40
62057;BME280;48016;50.284;18.860;2022-08-21T12:24:44;97757.05;;;20.24;80.57
62057;BME280;48016;50.284;18.860;2022-08-21T12:27:45;97761.61;;;20.20;80.76
62057;BME280;48016;50.284;18.860;2022-08-21T12:33:00;97755.98;;;20.17;80.84
62057;BME280;48016;50.284;18.860;2022-08-21T12:35:33;97747.27;;;20.15;81.19
62057;BME280;48016;50.284;18.860;2022-08-21T12:38:14;97758.28;;;20.06;80.76
62057;BME280;48016;50.284;18.860;2022-08-21T12:43:39;97761.77;;;19.85;80.73
62057;BME280;48016;50.284;18.860;2022-08-21T12:46:18;97761.17;;;19.71;80.41
62057;BME280;48016;50.284;18.860;2022-08-21T12:48:56;97767.80;;;19.61;81.04
62057;BME280;48016;50.284;18.860;2022-08-21T12:54:32;97759.28;;;19.37;81.36
62057;BME280;48016;50.284;18.860;2022-08-21T12:57:06;97761.41;;;19.23;81.34
62057;BME280;48016;50.284;18.860;2022-08-21T12:59:38;97743.38;;;19.13;81.30
62057;BME280;48016;50.284;18.860;2022-08-21T13:02:18;97755.95;;;19.05;81.90
62057;BME280;48016;50.284;18.860;2022-08-21T13:04:48;97765.77;;;18.97;81.70
62057;BME280;48016;50.284;18.860;2022-08-21T13:07:24;97772.38;;;18.88;82.07
62057;BME280;48016;50.284;18.860;2022-08-21T13:10:05;97771.42;;;18.75;82.51
62057;BME280;48016;50.284;18.860;2022-08-21T13:12:35;97766.70;;;18.67;82.23
62057;BME280;48016;50.284;18.860;2022-08-21T13:15:05;97774.58;;;18.60;82.74
62057;BME280;48016;50.284;18.860;2022-08-21T13:17:36;97770.55;;;18.57;82.93
62057;BME280;48016;50.284;18.860;2022-08-21T13:20:17;97769.44;;;18.58;82.80
62057;BME280;48016;50.284;18.860;2022-08-21T13:22:46;97769.28;;;18.55;82.95
62057;BME280;48016;50.284;18.860;2022-08-21T13:25:17;97764.27;;;18.57;83.37
62057;BME280;48016;50.284;18.860;2022-08-21T13:28:00;97761.53;;;18.57;83.58
62057;BME280;48016;50.284;18.860;2022-08-21T13:30:28;97767.01;;;18.57;83.46
62057;BME280;48016;50.284;18.860;2022-08-21T13:32:59;97764.61;;;18.55;83.82
62057;BME280;48016;50.284;18.860;2022-08-21T13:35:36;97773.92;;;18.54;83.55
62057;BME280;48016;50.284;18.860;2022-08-21T13:38:04;97761.22;;;18.49;83.93
62057;BME280;48016;50.284;18.860;2022-08-21T13:40:48;97769.57;;;18.44;83.48
62057;BME280;48016;50.284;18.860;2022-08-21T13:43:18;97780.36;;;18.41;83.60
62057;BME280;48016;50.284;18.860;2022-08-21T13:45:52;97776.32;;;18.38;83.14
62057;BME280;48016;50.284;18.860;2022-08-21T13:48:22;97783.23;;;18.36;83.90
62057;BME280;48016;50.284;18.860;2022-08-21T13:50:50;97778.56;;;18.36;83.85
62057;BME280;48016;50.284;18.860;2022-08-21T13:53:44;97778.89;;;18.35;83.90
62057;BME280;48016;50.284;18.860;2022-08-21T13:58:54;97772.77;;;18.29;84.28
62057;BME280;48016;50.284;18.860;2022-08-21T14:01:36;97779.04;;;18.29;84.20
62057;BME280;48016;50.284;18.860;2022-08-21T14:04:20;97776.60;;;18.28;84.07
62057;BME280;48016;50.284;18.860;2022-08-21T14:06:49;97777.24;;;18.25;84.05
62057;BME280;48016;50.284;18.860;2022-08-21T14:09:31;97777.08;;;18.21;84.10
62057;BME280;48016;50.284;18.860;2022-08-21T14:12:02;97784.63;;;18.16;84.26
62057;BME280;48016;50.284;18.860;2022-08-21T14:14:39;97783.66;;;18.12;84.22
62057;BME280;48016;50.284;18.860;2022-08-21T14:17:09;97792.80;;;18.07;84.21
62057;BME280;48016;50.284;18.860;2022-08-21T14:19:43;97786.66;;;18.01;84.38
62057;BME280;48016;50.284;18.860;2022-08-21T14:22:37;97790.03;;;17.98;84.41
62057;BME280;48016;50.284;18.860;2022-08-21T14:25:15;97796.13;;;17.95;84.75